Hovedside
METAR-TAF:

METAR-TAF

Lufthavner :

Dala lufthavn

Borlänge, Sverige

breddegrad: 60-26N, lengdegrad: 015-31E, høyde over havet: 145 m

Gjeldene værobservasjon

Denne rapporten ble laget for 22 minutter siden, klokken 01:20 UTC
Vind 4 kt fra Sør-sørvest
Temperatur -2°C
Luftfuktighet 86%
Trykk 997 hPa
Sikt 10 km eller mer

METAR: ESSD 290120Z AUTO 20004KT 9999 BKN019/// M02/M04 Q0997

Tid: 02:42 (01:42 UTC)

Varsel

Denne rapporten ble laget for 14 timer og 12 minutter siden, klokken 11:30 UTC
Varsel gyldig fra 28. klokken 12 UTC til 28. klokken 16 UTC
Vind 2 kt fra skiftende retning
Sikt 10 km eller mer
ingen skyer under 1500 m og ingen bygeskyer

TAF: ESSD 281130Z 2812/2816 VRB02KT CAVOK

Værobservasjoner og værvarsel for over 4000 flyplasser (METAR- og TAF-rapporter).

Tilgjengelige stasjoner er representert av de røde og gule prikkene på kartet.

Hold musepekeren over prikken for å se navnet på stasjonen.

Klikk så for å se værobservasjoner og -varsler.

For å forandre kartet kan du klikke på den grønne knappen med svart kryss for å zoome inn, på den grønne knappen med strek for å zoome ut, eller på de grønne pilene for å se tilstøtende kart.


METAR-TAF: